sensor_id;sensor_type;location;lat;lon;timestamp;P1;durP1;ratioP1;P2;durP2;ratioP2
1685;SDS011;840;47.980;7.830;2023-12-20T00:00:47;1.07;;;0.50;;
1685;SDS011;840;47.980;7.830;2023-12-20T00:03:14;0.60;;;0.60;;
1685;SDS011;840;47.980;7.830;2023-12-20T00:05:41;0.80;;;0.80;;
1685;SDS011;840;47.980;7.830;2023-12-20T00:08:07;2.77;;;0.93;;
1685;SDS011;840;47.980;7.830;2023-12-20T00:10:34;2.00;;;0.80;;
1685;SDS011;840;47.980;7.830;2023-12-20T00:13:01;0.80;;;0.80;;
1685;SDS011;840;47.980;7.830;2023-12-20T00:15:29;0.70;;;0.70;;
1685;SDS011;840;47.980;7.830;2023-12-20T00:17:56;0.93;;;0.93;;
1685;SDS011;840;47.980;7.830;2023-12-20T00:20:22;0.97;;;0.63;;
1685;SDS011;840;47.980;7.830;2023-12-20T00:22:49;0.90;;;0.73;;
1685;SDS011;840;47.980;7.830;2023-12-20T00:25:16;0.77;;;0.77;;
1685;SDS011;840;47.980;7.830;2023-12-20T00:27:42;0.87;;;0.87;;
1685;SDS011;840;47.980;7.830;2023-12-20T00:30:10;1.00;;;0.83;;
1685;SDS011;840;47.980;7.830;2023-12-20T00:32:38;1.10;;;1.10;;
1685;SDS011;840;47.980;7.830;2023-12-20T00:35:11;1.10;;;1.00;;
1685;SDS011;840;47.980;7.830;2023-12-20T00:37:37;1.67;;;0.83;;
1685;SDS011;840;47.980;7.830;2023-12-20T00:40:05;1.20;;;1.10;;
1685;SDS011;840;47.980;7.830;2023-12-20T00:42:32;1.20;;;1.10;;
1685;SDS011;840;47.980;7.830;2023-12-20T00:44:59;1.13;;;0.90;;
1685;SDS011;840;47.980;7.830;2023-12-20T00:47:26;1.93;;;1.23;;
1685;SDS011;840;47.980;7.830;2023-12-20T00:49:54;2.13;;;1.00;;
1685;SDS011;840;47.980;7.830;2023-12-20T00:52:20;2.23;;;1.30;;
1685;SDS011;840;47.980;7.830;2023-12-20T00:54:47;1.90;;;1.30;;
1685;SDS011;840;47.980;7.830;2023-12-20T00:57:14;1.33;;;0.80;;
1685;SDS011;840;47.980;7.830;2023-12-20T00:59:41;1.37;;;1.27;;
1685;SDS011;840;47.980;7.830;2023-12-20T01:02:08;0.93;;;0.83;;
1685;SDS011;840;47.980;7.830;2023-12-20T01:04:35;1.47;;;1.37;;
1685;SDS011;840;47.980;7.830;2023-12-20T01:07:03;1.20;;;1.10;;
1685;SDS011;840;47.980;7.830;2023-12-20T01:09:30;0.90;;;0.90;;
1685;SDS011;840;47.980;7.830;2023-12-20T01:11:56;1.83;;;1.40;;
1685;SDS011;840;47.980;7.830;2023-12-20T01:14:23;2.10;;;1.20;;
1685;SDS011;840;47.980;7.830;2023-12-20T01:16:50;1.27;;;1.17;;
1685;SDS011;840;47.980;7.830;2023-12-20T01:19:16;4.37;;;1.20;;
1685;SDS011;840;47.980;7.830;2023-12-20T01:21:43;1.10;;;0.90;;
1685;SDS011;840;47.980;7.830;2023-12-20T01:24:11;1.20;;;1.10;;
1685;SDS011;840;47.980;7.830;2023-12-20T01:26:38;1.60;;;1.20;;
1685;SDS011;840;47.980;7.830;2023-12-20T01:29:04;1.17;;;1.07;;
1685;SDS011;840;47.980;7.830;2023-12-20T01:31:31;1.63;;;1.53;;
1685;SDS011;840;47.980;7.830;2023-12-20T01:33:58;1.17;;;1.07;;
1685;SDS011;840;47.980;7.830;2023-12-20T01:36:24;1.10;;;1.00;;
1685;SDS011;840;47.980;7.830;2023-12-20T01:38:52;1.50;;;1.10;;
1685;SDS011;840;47.980;7.830;2023-12-20T01:41:20;0.70;;;0.70;;
1685;SDS011;840;47.980;7.830;2023-12-20T01:43:46;1.10;;;1.00;;
1685;SDS011;840;47.980;7.830;2023-12-20T01:46:13;0.70;;;0.70;;
1685;SDS011;840;47.980;7.830;2023-12-20T01:48:41;0.93;;;0.93;;
1685;SDS011;840;47.980;7.830;2023-12-20T01:51:08;1.20;;;1.20;;
1685;SDS011;840;47.980;7.830;2023-12-20T01:53:35;0.60;;;0.60;;
1685;SDS011;840;47.980;7.830;2023-12-20T01:56:02;0.97;;;0.97;;
1685;SDS011;840;47.980;7.830;2023-12-20T01:58:31;1.00;;;1.00;;
1685;SDS011;840;47.980;7.830;2023-12-20T02:00:58;1.10;;;0.80;;
1685;SDS011;840;47.980;7.830;2023-12-20T02:03:25;0.90;;;0.90;;
1685;SDS011;840;47.980;7.830;2023-12-20T02:05:52;0.77;;;0.77;;
1685;SDS011;840;47.980;7.830;2023-12-20T02:08:19;0.70;;;0.70;;
1685;SDS011;840;47.980;7.830;2023-12-20T02:10:45;1.90;;;0.90;;
1685;SDS011;840;47.980;7.830;2023-12-20T02:13:12;0.50;;;0.50;;
1685;SDS011;840;47.980;7.830;2023-12-20T02:15:40;1.60;;;0.80;;
1685;SDS011;840;47.980;7.830;2023-12-20T02:18:08;0.63;;;0.63;;
1685;SDS011;840;47.980;7.830;2023-12-20T02:20:35;0.70;;;0.60;;
1685;SDS011;840;47.980;7.830;2023-12-20T02:23:03;0.60;;;0.60;;
1685;SDS011;840;47.980;7.830;2023-12-20T02:25:30;0.70;;;0.67;;
1685;SDS011;840;47.980;7.830;2023-12-20T02:27:56;1.40;;;0.80;;
1685;SDS011;840;47.980;7.830;2023-12-20T02:30:23;0.80;;;0.80;;
1685;SDS011;840;47.980;7.830;2023-12-20T02:32:50;1.17;;;0.80;;
1685;SDS011;840;47.980;7.830;2023-12-20T02:35:18;0.90;;;0.90;;
1685;SDS011;840;47.980;7.830;2023-12-20T02:37:45;1.10;;;1.10;;
1685;SDS011;840;47.980;7.830;2023-12-20T02:40:13;0.83;;;0.83;;
1685;SDS011;840;47.980;7.830;2023-12-20T02:42:39;1.17;;;1.03;;
1685;SDS011;840;47.980;7.830;2023-12-20T02:45:07;1.17;;;0.73;;
1685;SDS011;840;47.980;7.830;2023-12-20T02:47:34;1.50;;;1.27;;
1685;SDS011;840;47.980;7.830;2023-12-20T02:50:00;1.43;;;0.90;;
1685;SDS011;840;47.980;7.830;2023-12-20T02:52:28;1.20;;;1.20;;
1685;SDS011;840;47.980;7.830;2023-12-20T02:54:55;1.70;;;1.60;;
1685;SDS011;840;47.980;7.830;2023-12-20T02:57:23;1.10;;;1.10;;
1685;SDS011;840;47.980;7.830;2023-12-20T02:59:50;0.77;;;0.77;;
1685;SDS011;840;47.980;7.830;2023-12-20T03:02:16;1.23;;;1.13;;
1685;SDS011;840;47.980;7.830;2023-12-20T03:04:43;0.90;;;0.90;;
1685;SDS011;840;47.980;7.830;2023-12-20T03:07:10;1.10;;;0.70;;
1685;SDS011;840;47.980;7.830;2023-12-20T03:09:37;1.17;;;1.00;;
1685;SDS011;840;47.980;7.830;2023-12-20T03:12:04;1.30;;;1.30;;
1685;SDS011;840;47.980;7.830;2023-12-20T03:14:32;0.87;;;0.87;;
1685;SDS011;840;47.980;7.830;2023-12-20T03:16:59;1.97;;;1.20;;
1685;SDS011;840;47.980;7.830;2023-12-20T03:19:25;0.93;;;0.93;;
1685;SDS011;840;47.980;7.830;2023-12-20T03:21:52;0.90;;;0.90;;
1685;SDS011;840;47.980;7.830;2023-12-20T03:24:19;1.00;;;1.00;;
1685;SDS011;840;47.980;7.830;2023-12-20T03:26:47;1.50;;;1.37;;
1685;SDS011;840;47.980;7.830;2023-12-20T03:29:13;0.70;;;0.70;;
1685;SDS011;840;47.980;7.830;2023-12-20T03:31:41;0.67;;;0.67;;
1685;SDS011;840;47.980;7.830;2023-12-20T03:34:08;2.20;;;1.00;;
1685;SDS011;840;47.980;7.830;2023-12-20T03:36:35;1.07;;;1.07;;
1685;SDS011;840;47.980;7.830;2023-12-20T03:39:02;0.80;;;0.80;;
1685;SDS011;840;47.980;7.830;2023-12-20T03:41:29;0.90;;;0.90;;
1685;SDS011;840;47.980;7.830;2023-12-20T03:43:55;1.30;;;1.20;;
1685;SDS011;840;47.980;7.830;2023-12-20T03:46:22;0.90;;;0.90;;
1685;SDS011;840;47.980;7.830;2023-12-20T03:48:50;1.27;;;1.17;;
1685;SDS011;840;47.980;7.830;2023-12-20T03:51:17;1.07;;;1.00;;
1685;SDS011;840;47.980;7.830;2023-12-20T03:53:44;0.93;;;0.90;;
1685;SDS011;840;47.980;7.830;2023-12-20T03:56:10;0.80;;;0.80;;
1685;SDS011;840;47.980;7.830;2023-12-20T03:58:37;0.80;;;0.80;;
1685;SDS011;840;47.980;7.830;2023-12-20T04:01:08;1.17;;;1.00;;
1685;SDS011;840;47.980;7.830;2023-12-20T04:03:36;0.77;;;0.77;;
1685;SDS011;840;47.980;7.830;2023-12-20T04:06:05;1.00;;;1.00;;
1685;SDS011;840;47.980;7.830;2023-12-20T04:08:31;0.57;;;0.50;;
1685;SDS011;840;47.980;7.830;2023-12-20T04:10:58;0.90;;;0.90;;
1685;SDS011;840;47.980;7.830;2023-12-20T04:13:25;0.73;;;0.73;;
1685;SDS011;840;47.980;7.830;2023-12-20T04:15:51;0.87;;;0.87;;
1685;SDS011;840;47.980;7.830;2023-12-20T04:18:18;0.70;;;0.70;;
1685;SDS011;840;47.980;7.830;2023-12-20T04:20:45;0.60;;;0.60;;
1685;SDS011;840;47.980;7.830;2023-12-20T04:23:13;0.70;;;0.70;;
1685;SDS011;840;47.980;7.830;2023-12-20T04:25:40;0.70;;;0.70;;
1685;SDS011;840;47.980;7.830;2023-12-20T04:28:06;0.63;;;0.63;;
1685;SDS011;840;47.980;7.830;2023-12-20T04:30:33;0.73;;;0.63;;
1685;SDS011;840;47.980;7.830;2023-12-20T04:33:00;0.50;;;0.50;;
1685;SDS011;840;47.980;7.830;2023-12-20T04:35:27;0.60;;;0.60;;
1685;SDS011;840;47.980;7.830;2023-12-20T04:37:54;0.60;;;0.60;;
1685;SDS011;840;47.980;7.830;2023-12-20T04:40:22;0.83;;;0.83;;
1685;SDS011;840;47.980;7.830;2023-12-20T04:42:48;0.70;;;0.70;;
1685;SDS011;840;47.980;7.830;2023-12-20T04:45:15;0.70;;;0.70;;
1685;SDS011;840;47.980;7.830;2023-12-20T04:47:43;0.80;;;0.80;;
1685;SDS011;840;47.980;7.830;2023-12-20T04:50:12;0.60;;;0.60;;
1685;SDS011;840;47.980;7.830;2023-12-20T04:52:39;0.80;;;0.80;;
1685;SDS011;840;47.980;7.830;2023-12-20T04:55:06;0.93;;;0.83;;
1685;SDS011;840;47.980;7.830;2023-12-20T04:57:35;0.80;;;0.80;;
1685;SDS011;840;47.980;7.830;2023-12-20T05:00:01;0.77;;;0.77;;
1685;SDS011;840;47.980;7.830;2023-12-20T05:02:29;0.90;;;0.90;;
1685;SDS011;840;47.980;7.830;2023-12-20T05:04:56;0.70;;;0.70;;
1685;SDS011;840;47.980;7.830;2023-12-20T05:07:22;1.07;;;0.70;;
1685;SDS011;840;47.980;7.830;2023-12-20T05:09:49;0.87;;;0.87;;
1685;SDS011;840;47.980;7.830;2023-12-20T05:12:16;0.80;;;0.57;;
1685;SDS011;840;47.980;7.830;2023-12-20T05:14:44;0.50;;;0.50;;
1685;SDS011;840;47.980;7.830;2023-12-20T05:17:11;0.90;;;0.90;;
1685;SDS011;840;47.980;7.830;2023-12-20T05:19:37;0.83;;;0.83;;
1685;SDS011;840;47.980;7.830;2023-12-20T05:22:04;0.90;;;0.90;;
1685;SDS011;840;47.980;7.830;2023-12-20T05:24:31;0.80;;;0.80;;
1685;SDS011;840;47.980;7.830;2023-12-20T05:26:57;1.17;;;1.07;;
1685;SDS011;840;47.980;7.830;2023-12-20T05:29:24;0.90;;;0.90;;
1685;SDS011;840;47.980;7.830;2023-12-20T05:31:52;1.53;;;1.27;;
1685;SDS011;840;47.980;7.830;2023-12-20T05:34:19;0.80;;;0.80;;
1685;SDS011;840;47.980;7.830;2023-12-20T05:36:46;0.93;;;0.80;;
1685;SDS011;840;47.980;7.830;2023-12-20T05:39:13;0.93;;;0.73;;
1685;SDS011;840;47.980;7.830;2023-12-20T05:41:39;0.90;;;0.90;;
1685;SDS011;840;47.980;7.830;2023-12-20T05:44:06;0.83;;;0.83;;
1685;SDS011;840;47.980;7.830;2023-12-20T05:46:33;0.83;;;0.60;;
1685;SDS011;840;47.980;7.830;2023-12-20T05:49:01;0.97;;;0.97;;
1685;SDS011;840;47.980;7.830;2023-12-20T05:51:28;1.80;;;0.60;;
1685;SDS011;840;47.980;7.830;2023-12-20T05:53:54;0.90;;;0.90;;
1685;SDS011;840;47.980;7.830;2023-12-20T05:56:21;0.67;;;0.67;;
1685;SDS011;840;47.980;7.830;2023-12-20T05:58:48;0.80;;;0.80;;
1685;SDS011;840;47.980;7.830;2023-12-20T06:01:14;1.20;;;1.10;;
1685;SDS011;840;47.980;7.830;2023-12-20T06:03:42;0.60;;;0.60;;
1685;SDS011;840;47.980;7.830;2023-12-20T06:06:12;0.90;;;0.90;;
1685;SDS011;840;47.980;7.830;2023-12-20T06:08:39;1.17;;;1.07;;
1685;SDS011;840;47.980;7.830;2023-12-20T06:11:08;0.83;;;0.83;;
1685;SDS011;840;47.980;7.830;2023-12-20T06:13:35;1.03;;;0.80;;
1685;SDS011;840;47.980;7.830;2023-12-20T06:16:02;1.00;;;0.90;;
1685;SDS011;840;47.980;7.830;2023-12-20T06:18:29;0.67;;;0.67;;
1685;SDS011;840;47.980;7.830;2023-12-20T06:20:56;0.90;;;0.80;;
1685;SDS011;840;47.980;7.830;2023-12-20T06:23:24;0.57;;;0.53;;
1685;SDS011;840;47.980;7.830;2023-12-20T06:25:52;0.83;;;0.80;;
1685;SDS011;840;47.980;7.830;2023-12-20T06:28:18;1.10;;;1.10;;
1685;SDS011;840;47.980;7.830;2023-12-20T06:30:45;0.70;;;0.70;;
1685;SDS011;840;47.980;7.830;2023-12-20T06:33:14;0.73;;;0.60;;
1685;SDS011;840;47.980;7.830;2023-12-20T06:35:41;0.63;;;0.63;;
1685;SDS011;840;47.980;7.830;2023-12-20T06:38:07;0.70;;;0.70;;
1685;SDS011;840;47.980;7.830;2023-12-20T06:40:35;0.77;;;0.77;;
1685;SDS011;840;47.980;7.830;2023-12-20T06:43:02;1.30;;;0.67;;
1685;SDS011;840;47.980;7.830;2023-12-20T06:45:29;0.50;;;0.50;;
1685;SDS011;840;47.980;7.830;2023-12-20T06:47:56;0.77;;;0.77;;
1685;SDS011;840;47.980;7.830;2023-12-20T06:50:23;0.50;;;0.50;;
1685;SDS011;840;47.980;7.830;2023-12-20T06:52:50;0.60;;;0.60;;
1685;SDS011;840;47.980;7.830;2023-12-20T06:55:17;0.70;;;0.70;;
1685;SDS011;840;47.980;7.830;2023-12-20T06:57:45;0.50;;;0.50;;
1685;SDS011;840;47.980;7.830;2023-12-20T07:00:12;0.57;;;0.57;;
1685;SDS011;840;47.980;7.830;2023-12-20T07:02:40;0.50;;;0.50;;
1685;SDS011;840;47.980;7.830;2023-12-20T07:05:06;0.97;;;0.70;;
1685;SDS011;840;47.980;7.830;2023-12-20T07:07:33;0.60;;;0.60;;
1685;SDS011;840;47.980;7.830;2023-12-20T07:10:00;0.97;;;0.60;;
1685;SDS011;840;47.980;7.830;2023-12-20T07:12:27;1.13;;;0.90;;
1685;SDS011;840;47.980;7.830;2023-12-20T07:14:55;2.13;;;1.13;;
1685;SDS011;840;47.980;7.830;2023-12-20T07:17:21;0.93;;;0.90;;
1685;SDS011;840;47.980;7.830;2023-12-20T07:19:48;1.33;;;1.00;;
1685;SDS011;840;47.980;7.830;2023-12-20T07:22:15;0.63;;;0.63;;
1685;SDS011;840;47.980;7.830;2023-12-20T07:24:42;1.33;;;0.87;;
1685;SDS011;840;47.980;7.830;2023-12-20T07:27:08;0.60;;;0.60;;
1685;SDS011;840;47.980;7.830;2023-12-20T07:29:35;1.43;;;0.80;;
1685;SDS011;840;47.980;7.830;2023-12-20T07:32:03;0.40;;;0.40;;
1685;SDS011;840;47.980;7.830;2023-12-20T07:34:31;0.90;;;0.90;;
1685;SDS011;840;47.980;7.830;2023-12-20T07:36:57;0.80;;;0.60;;
1685;SDS011;840;47.980;7.830;2023-12-20T07:39:24;0.77;;;0.77;;
1685;SDS011;840;47.980;7.830;2023-12-20T07:41:51;0.70;;;0.70;;
1685;SDS011;840;47.980;7.830;2023-12-20T07:44:17;1.03;;;0.70;;
1685;SDS011;840;47.980;7.830;2023-12-20T07:46:44;1.20;;;0.77;;
1685;SDS011;840;47.980;7.830;2023-12-20T07:49:12;0.83;;;0.83;;
1685;SDS011;840;47.980;7.830;2023-12-20T07:51:39;1.17;;;0.60;;
1685;SDS011;840;47.980;7.830;2023-12-20T07:54:06;0.80;;;0.80;;
1685;SDS011;840;47.980;7.830;2023-12-20T07:56:33;0.70;;;0.60;;
1685;SDS011;840;47.980;7.830;2023-12-20T07:59:00;0.90;;;0.70;;
1685;SDS011;840;47.980;7.830;2023-12-20T08:01:26;0.90;;;0.90;;
1685;SDS011;840;47.980;7.830;2023-12-20T08:03:53;1.33;;;1.23;;
1685;SDS011;840;47.980;7.830;2023-12-20T08:06:21;0.87;;;0.87;;
1685;SDS011;840;47.980;7.830;2023-12-20T08:08:48;1.13;;;0.80;;
1685;SDS011;840;47.980;7.830;2023-12-20T08:11:15;1.13;;;1.00;;
1685;SDS011;840;47.980;7.830;2023-12-20T08:13:42;1.30;;;1.20;;
1685;SDS011;840;47.980;7.830;2023-12-20T08:16:09;0.90;;;0.90;;
1685;SDS011;840;47.980;7.830;2023-12-20T08:18:38;0.80;;;0.80;;
1685;SDS011;840;47.980;7.830;2023-12-20T08:21:05;0.77;;;0.77;;
1685;SDS011;840;47.980;7.830;2023-12-20T08:23:34;1.30;;;1.20;;
1685;SDS011;840;47.980;7.830;2023-12-20T08:26:03;1.53;;;1.00;;
1685;SDS011;840;47.980;7.830;2023-12-20T08:28:30;0.87;;;0.87;;
1685;SDS011;840;47.980;7.830;2023-12-20T08:30:57;0.90;;;0.80;;
1685;SDS011;840;47.980;7.830;2023-12-20T08:33:24;0.80;;;0.80;;
1685;SDS011;840;47.980;7.830;2023-12-20T08:35:50;0.60;;;0.60;;
1685;SDS011;840;47.980;7.830;2023-12-20T08:38:17;0.60;;;0.60;;
1685;SDS011;840;47.980;7.830;2023-12-20T08:40:45;0.87;;;0.87;;
1685;SDS011;840;47.980;7.830;2023-12-20T08:43:13;1.17;;;0.50;;
1685;SDS011;840;47.980;7.830;2023-12-20T08:45:40;0.80;;;0.77;;
1685;SDS011;840;47.980;7.830;2023-12-20T08:48:06;0.60;;;0.60;;
1685;SDS011;840;47.980;7.830;2023-12-20T08:50:33;0.80;;;0.80;;
1685;SDS011;840;47.980;7.830;2023-12-20T08:53:00;0.73;;;0.73;;
1685;SDS011;840;47.980;7.830;2023-12-20T08:55:27;0.90;;;0.90;;
1685;SDS011;840;47.980;7.830;2023-12-20T08:57:56;1.57;;;1.20;;
1685;SDS011;840;47.980;7.830;2023-12-20T09:00:23;1.07;;;1.07;;
1685;SDS011;840;47.980;7.830;2023-12-20T09:02:52;0.70;;;0.70;;
1685;SDS011;840;47.980;7.830;2023-12-20T09:05:19;1.10;;;1.00;;
1685;SDS011;840;47.980;7.830;2023-12-20T09:07:46;0.60;;;0.60;;
1685;SDS011;840;47.980;7.830;2023-12-20T09:10:12;0.70;;;0.70;;
1685;SDS011;840;47.980;7.830;2023-12-20T09:12:38;0.70;;;0.70;;
1685;SDS011;840;47.980;7.830;2023-12-20T09:15:07;0.60;;;0.60;;
1685;SDS011;840;47.980;7.830;2023-12-20T09:17:34;1.20;;;1.10;;
1685;SDS011;840;47.980;7.830;2023-12-20T09:20:00;1.33;;;1.20;;
1685;SDS011;840;47.980;7.830;2023-12-20T09:22:27;2.63;;;1.50;;
1685;SDS011;840;47.980;7.830;2023-12-20T09:24:54;1.50;;;1.40;;
1685;SDS011;840;47.980;7.830;2023-12-20T09:27:20;1.00;;;1.00;;
1685;SDS011;840;47.980;7.830;2023-12-20T09:29:47;3.65;;;1.70;;
1685;SDS011;840;47.980;7.830;2023-12-20T09:32:16;1.83;;;1.57;;
1685;SDS011;840;47.980;7.830;2023-12-20T09:34:42;2.27;;;1.93;;
1685;SDS011;840;47.980;7.830;2023-12-20T09:37:09;2.72;;;2.10;;
1685;SDS011;840;47.980;7.830;2023-12-20T09:39:36;1.50;;;1.40;;
1685;SDS011;840;47.980;7.830;2023-12-20T09:42:03;1.63;;;1.53;;
1685;SDS011;840;47.980;7.830;2023-12-20T09:44:31;1.70;;;1.60;;
1685;SDS011;840;47.980;7.830;2023-12-20T09:46:59;1.50;;;1.40;;
1685;SDS011;840;47.980;7.830;2023-12-20T09:49:30;5.20;;;3.40;;
1685;SDS011;840;47.980;7.830;2023-12-20T09:51:58;8.17;;;4.70;;
1685;SDS011;840;47.980;7.830;2023-12-20T09:54:26;3.47;;;2.30;;
1685;SDS011;840;47.980;7.830;2023-12-20T09:56:55;1.67;;;1.57;;
1685;SDS011;840;47.980;7.830;2023-12-20T09:59:22;3.27;;;1.53;;
1685;SDS011;840;47.980;7.830;2023-12-20T10:01:49;1.93;;;1.70;;
1685;SDS011;840;47.980;7.830;2023-12-20T10:04:18;3.57;;;2.53;;
1685;SDS011;840;47.980;7.830;2023-12-20T10:06:46;3.37;;;2.70;;
1685;SDS011;840;47.980;7.830;2023-12-20T10:09:13;3.43;;;2.70;;
1685;SDS011;840;47.980;7.830;2023-12-20T10:11:40;3.17;;;2.80;;
1685;SDS011;840;47.980;7.830;2023-12-20T10:14:07;4.77;;;3.10;;
1685;SDS011;840;47.980;7.830;2023-12-20T10:16:33;2.00;;;1.83;;
1685;SDS011;840;47.980;7.830;2023-12-20T10:19:00;2.23;;;2.10;;
1685;SDS011;840;47.980;7.830;2023-12-20T10:21:27;2.63;;;2.47;;
1685;SDS011;840;47.980;7.830;2023-12-20T10:23:55;3.70;;;2.97;;
1685;SDS011;840;47.980;7.830;2023-12-20T10:26:23;2.70;;;2.50;;
1685;SDS011;840;47.980;7.830;2023-12-20T10:28:50;2.57;;;2.37;;
1685;SDS011;840;47.980;7.830;2023-12-20T10:31:28;2.70;;;2.50;;
1685;SDS011;840;47.980;7.830;2023-12-20T10:33:57;2.83;;;2.63;;
1685;SDS011;840;47.980;7.830;2023-12-20T10:36:25;2.87;;;2.40;;
1685;SDS011;840;47.980;7.830;2023-12-20T10:38:53;4.97;;;2.57;;
1685;SDS011;840;47.980;7.830;2023-12-20T10:41:23;3.97;;;2.30;;
1685;SDS011;840;47.980;7.830;2023-12-20T10:43:52;4.93;;;2.00;;
1685;SDS011;840;47.980;7.830;2023-12-20T10:46:22;2.13;;;2.00;;
1685;SDS011;840;47.980;7.830;2023-12-20T10:48:48;2.07;;;1.87;;
1685;SDS011;840;47.980;7.830;2023-12-20T10:51:17;2.93;;;2.30;;
1685;SDS011;840;47.980;7.830;2023-12-20T10:53:45;2.57;;;2.37;;
1685;SDS011;840;47.980;7.830;2023-12-20T10:56:15;1.93;;;1.73;;
1685;SDS011;840;47.980;7.830;2023-12-20T10:58:44;6.10;;;3.03;;
1685;SDS011;840;47.980;7.830;2023-12-20T11:01:12;3.20;;;2.23;;
1685;SDS011;840;47.980;7.830;2023-12-20T11:03:40;2.90;;;2.17;;
1685;SDS011;840;47.980;7.830;2023-12-20T11:06:11;3.30;;;2.43;;
1685;SDS011;840;47.980;7.830;2023-12-20T11:08:47;1.90;;;1.80;;
1685;SDS011;840;47.980;7.830;2023-12-20T11:11:20;2.10;;;1.90;;
1685;SDS011;840;47.980;7.830;2023-12-20T11:14:00;3.00;;;2.07;;
1685;SDS011;840;47.980;7.830;2023-12-20T11:16:30;5.00;;;2.17;;
1685;SDS011;840;47.980;7.830;2023-12-20T11:18:57;4.03;;;2.50;;
1685;SDS011;840;47.980;7.830;2023-12-20T11:21:30;3.30;;;2.20;;
1685;SDS011;840;47.980;7.830;2023-12-20T11:23:57;2.47;;;2.00;;
1685;SDS011;840;47.980;7.830;2023-12-20T11:26:26;2.00;;;1.77;;
1685;SDS011;840;47.980;7.830;2023-12-20T11:28:53;2.37;;;2.17;;
1685;SDS011;840;47.980;7.830;2023-12-20T11:31:22;2.10;;;2.00;;
1685;SDS011;840;47.980;7.830;2023-12-20T11:33:48;2.97;;;2.77;;
1685;SDS011;840;47.980;7.830;2023-12-20T11:36:18;4.20;;;3.90;;
1685;SDS011;840;47.980;7.830;2023-12-20T11:38:53;4.20;;;2.90;;
1685;SDS011;840;47.980;7.830;2023-12-20T11:41:22;7.03;;;3.00;;
1685;SDS011;840;47.980;7.830;2023-12-20T11:43:49;2.33;;;1.70;;
1685;SDS011;840;47.980;7.830;2023-12-20T11:46:19;1.97;;;1.87;;
1685;SDS011;840;47.980;7.830;2023-12-20T11:48:48;3.43;;;2.20;;
1685;SDS011;840;47.980;7.830;2023-12-20T11:51:14;1.77;;;1.60;;
1685;SDS011;840;47.980;7.830;2023-12-20T11:53:41;3.27;;;2.00;;
1685;SDS011;840;47.980;7.830;2023-12-20T11:56:08;3.67;;;1.60;;
1685;SDS011;840;47.980;7.830;2023-12-20T11:58:36;3.40;;;1.80;;
1685;SDS011;840;47.980;7.830;2023-12-20T12:01:03;3.37;;;1.60;;
1685;SDS011;840;47.980;7.830;2023-12-20T12:03:32;2.33;;;2.13;;
1685;SDS011;840;47.980;7.830;2023-12-20T12:06:00;3.27;;;1.70;;
1685;SDS011;840;47.980;7.830;2023-12-20T12:08:29;2.10;;;1.70;;
1685;SDS011;840;47.980;7.830;2023-12-20T12:10:56;5.03;;;1.67;;
1685;SDS011;840;47.980;7.830;2023-12-20T12:13:23;2.20;;;1.27;;
1685;SDS011;840;47.980;7.830;2023-12-20T12:15:52;2.33;;;1.47;;
1685;SDS011;840;47.980;7.830;2023-12-20T12:18:19;3.77;;;1.30;;
1685;SDS011;840;47.980;7.830;2023-12-20T12:20:46;2.07;;;1.13;;
1685;SDS011;840;47.980;7.830;2023-12-20T12:23:14;2.60;;;1.50;;
1685;SDS011;840;47.980;7.830;2023-12-20T12:25:48;2.40;;;1.30;;
1685;SDS011;840;47.980;7.830;2023-12-20T12:28:15;3.20;;;2.00;;
1685;SDS011;840;47.980;7.830;2023-12-20T12:30:42;4.87;;;2.80;;
1685;SDS011;840;47.980;7.830;2023-12-20T12:33:09;5.53;;;1.50;;
1685;SDS011;840;47.980;7.830;2023-12-20T12:35:36;2.07;;;1.87;;
1685;SDS011;840;47.980;7.830;2023-12-20T12:38:03;3.07;;;1.37;;
1685;SDS011;840;47.980;7.830;2023-12-20T12:40:34;4.93;;;4.43;;
1685;SDS011;840;47.980;7.830;2023-12-20T12:43:01;1.70;;;1.23;;
1685;SDS011;840;47.980;7.830;2023-12-20T12:45:29;1.00;;;1.00;;
1685;SDS011;840;47.980;7.830;2023-12-20T12:47:56;1.50;;;1.27;;
1685;SDS011;840;47.980;7.830;2023-12-20T12:50:22;1.70;;;1.40;;
1685;SDS011;840;47.980;7.830;2023-12-20T12:52:49;1.30;;;0.87;;
1685;SDS011;840;47.980;7.830;2023-12-20T12:55:16;4.00;;;1.23;;
1685;SDS011;840;47.980;7.830;2023-12-20T12:57:44;1.42;;;1.10;;
1685;SDS011;840;47.980;7.830;2023-12-20T13:00:11;2.67;;;1.20;;
1685;SDS011;840;47.980;7.830;2023-12-20T13:02:38;7.57;;;2.60;;
1685;SDS011;840;47.980;7.830;2023-12-20T13:05:07;2.70;;;1.30;;
1685;SDS011;840;47.980;7.830;2023-12-20T13:07:34;3.07;;;1.40;;
1685;SDS011;840;47.980;7.830;2023-12-20T13:10:01;3.53;;;2.27;;
1685;SDS011;840;47.980;7.830;2023-12-20T13:12:28;3.70;;;2.40;;
1685;SDS011;840;47.980;7.830;2023-12-20T13:14:56;4.43;;;2.13;;
1685;SDS011;840;47.980;7.830;2023-12-20T13:17:23;2.37;;;1.60;;
1685;SDS011;840;47.980;7.830;2023-12-20T13:19:50;3.50;;;2.97;;
1685;SDS011;840;47.980;7.830;2023-12-20T13:22:16;3.80;;;1.80;;
1685;SDS011;840;47.980;7.830;2023-12-20T13:24:43;8.83;;;4.87;;
1685;SDS011;840;47.980;7.830;2023-12-20T13:27:10;6.97;;;3.80;;
1685;SDS011;840;47.980;7.830;2023-12-20T13:29:37;9.60;;;5.27;;
1685;SDS011;840;47.980;7.830;2023-12-20T13:32:05;3.27;;;1.57;;
1685;SDS011;840;47.980;7.830;2023-12-20T13:34:32;2.20;;;2.00;;
1685;SDS011;840;47.980;7.830;2023-12-20T13:36:59;4.37;;;1.97;;
1685;SDS011;840;47.980;7.830;2023-12-20T13:39:26;2.20;;;1.93;;
1685;SDS011;840;47.980;7.830;2023-12-20T13:41:52;3.57;;;2.20;;
1685;SDS011;840;47.980;7.830;2023-12-20T13:44:19;6.40;;;2.50;;
1685;SDS011;840;47.980;7.830;2023-12-20T13:46:46;4.23;;;1.90;;
1685;SDS011;840;47.980;7.830;2023-12-20T13:49:16;1.67;;;1.53;;
1685;SDS011;840;47.980;7.830;2023-12-20T13:51:43;3.97;;;1.30;;
1685;SDS011;840;47.980;7.830;2023-12-20T13:54:09;1.27;;;1.17;;
1685;SDS011;840;47.980;7.830;2023-12-20T13:56:36;1.77;;;1.60;;
1685;SDS011;840;47.980;7.830;2023-12-20T13:59:03;4.10;;;1.70;;
1685;SDS011;840;47.980;7.830;2023-12-20T14:01:30;2.90;;;1.30;;
1685;SDS011;840;47.980;7.830;2023-12-20T14:03:57;5.00;;;1.65;;
1685;SDS011;840;47.980;7.830;2023-12-20T14:06:27;1.63;;;1.53;;
1685;SDS011;840;47.980;7.830;2023-12-20T14:08:54;3.40;;;1.63;;
1685;SDS011;840;47.980;7.830;2023-12-20T14:11:21;5.83;;;1.67;;
1685;SDS011;840;47.980;7.830;2023-12-20T14:13:48;5.00;;;2.30;;
1685;SDS011;840;47.980;7.830;2023-12-20T14:16:14;2.10;;;1.00;;
1685;SDS011;840;47.980;7.830;2023-12-20T14:18:41;2.47;;;1.90;;
1685;SDS011;840;47.980;7.830;2023-12-20T14:21:08;4.30;;;2.03;;
1685;SDS011;840;47.980;7.830;2023-12-20T14:23:36;2.63;;;2.00;;
1685;SDS011;840;47.980;7.830;2023-12-20T14:26:03;1.87;;;1.77;;
1685;SDS011;840;47.980;7.830;2023-12-20T14:28:30;1.70;;;1.30;;
1685;SDS011;840;47.980;7.830;2023-12-20T14:30:56;3.40;;;2.20;;
1685;SDS011;840;47.980;7.830;2023-12-20T14:33:23;1.70;;;1.60;;
1685;SDS011;840;47.980;7.830;2023-12-20T14:35:50;4.67;;;2.37;;
1685;SDS011;840;47.980;7.830;2023-12-20T14:38:17;2.07;;;1.33;;
1685;SDS011;840;47.980;7.830;2023-12-20T14:40:48;2.30;;;1.70;;
1685;SDS011;840;47.980;7.830;2023-12-20T14:43:15;4.97;;;1.23;;
1685;SDS011;840;47.980;7.830;2023-12-20T14:45:42;1.80;;;1.60;;
1685;SDS011;840;47.980;7.830;2023-12-20T14:48:09;1.90;;;1.40;;
1685;SDS011;840;47.980;7.830;2023-12-20T14:50:36;2.43;;;1.67;;
1685;SDS011;840;47.980;7.830;2023-12-20T14:53:06;2.20;;;1.77;;
1685;SDS011;840;47.980;7.830;2023-12-20T14:55:32;2.73;;;1.63;;
1685;SDS011;840;47.980;7.830;2023-12-20T14:58:01;4.03;;;1.50;;
1685;SDS011;840;47.980;7.830;2023-12-20T15:00:28;2.10;;;1.80;;
1685;SDS011;840;47.980;7.830;2023-12-20T15:02:55;6.40;;;1.90;;
1685;SDS011;840;47.980;7.830;2023-12-20T15:05:21;2.90;;;1.50;;
1685;SDS011;840;47.980;7.830;2023-12-20T15:07:48;4.17;;;1.23;;
1685;SDS011;840;47.980;7.830;2023-12-20T15:10:15;2.80;;;1.73;;
1685;SDS011;840;47.980;7.830;2023-12-20T15:12:42;1.97;;;1.77;;
1685;SDS011;840;47.980;7.830;2023-12-20T15:15:11;2.83;;;1.80;;
1685;SDS011;840;47.980;7.830;2023-12-20T15:17:38;2.03;;;1.83;;
1685;SDS011;840;47.980;7.830;2023-12-20T15:20:05;4.30;;;2.07;;
1685;SDS011;840;47.980;7.830;2023-12-20T15:22:35;5.53;;;2.37;;
1685;SDS011;840;47.980;7.830;2023-12-20T15:25:03;6.57;;;1.63;;
1685;SDS011;840;47.980;7.830;2023-12-20T15:27:33;1.10;;;1.00;;
1685;SDS011;840;47.980;7.830;2023-12-20T15:30:03;4.13;;;2.50;;